Weather History for Stephenville, TX

Change the Weather History Date:

Tuesday, March 5, 2013

  Actual Average Record
Temperature  
Mean Temperature 46 °F -  
Max Temperature 57 °F 65 °F 93 °F (1991)
Min Temperature 35 °F 36 °F 17 °F (1989)
Degree Days  
Heating Degree Days 19    
Moisture  
Dew Point 18 °F    
Average Humidity 35    
Maximum Humidity 66    
Minimum Humidity 13    
Precipitation  
Precipitation 0.00 in - - ()
Sea Level Pressure  
Sea Level Pressure 30.29 in    
Wind  
Wind Speed 20 mph (NNW)    
Max Wind Speed 34 mph    
Max Gust Speed 45 mph    
Visibility 10 miles    
Events      
Averages and records for this station are not official NWS values.
T = Trace of Precipitation, MM = Missing Value Source: NWS Daily Summary

Daily Weather History Graph

Daily Weather History Graph

Search for Another Location

Airport:

Trip Planner

Search our weather history database for the weather conditions in past years. The results will help you decide how hot, cold, wet, or windy it might be!

Date:

Astronomy

Mar. 05, 2013 Rise Set
Actual Time 6:55 AM CST 6:33 PM CST
Civil Twilight 6:30 AM CST 6:58 PM CST
Nautical Twilight 6:02 AM CST 7:26 PM CST
Astronomical Twilight 5:33 AM CST 7:54 PM CST
Moon 1:53 AM CST (3/5) 12:29 PM CST (3/5)
Length of Visible Light 12h 27m
Length of Day
11h 38m
Last Quarter, 40% of the Moon is Illuminated
Mar 5
Last Quarter
Mar 11
New
Mar 19
First Quarter
Mar 27
Full
Apr 2
Last Quarter

Hourly Weather History & Observations

Time (CST) Temp. Windchill Dew Point Humidity Pressure Visibility Wind Dir Wind Speed Gust Speed Precip Events Conditions
12:15 AM 53.6 °F - 41.0 °F 62% 29.91 in 10.0 mi North 18.4 mph 31.1 mph N/A   Clear
12:35 AM 51.8 °F - 37.4 °F 58% 29.93 in 10.0 mi North 24.2 mph 32.2 mph N/A   Clear
12:55 AM 48.2 °F - 37.4 °F 66% 29.96 in 10.0 mi North 26.5 mph 36.8 mph N/A   Clear
1:15 AM 46.4 °F 37.9 °F 35.6 °F 66% 29.99 in 10.0 mi North 25.3 mph 39.1 mph N/A   Clear
1:35 AM 46.4 °F 37.5 °F 35.6 °F 66% 30.02 in 10.0 mi North 27.6 mph 40.3 mph N/A   Clear
1:55 AM 46.4 °F 36.5 °F 33.8 °F 62% 30.03 in 10.0 mi North 34.5 mph 41.4 mph N/A   Clear
2:15 AM 46.4 °F 38.3 °F 33.8 °F 62% 30.10 in 10.0 mi NNW 23.0 mph 36.8 mph N/A   Clear
2:35 AM 46.4 °F 37.7 °F 32.0 °F 57% 30.10 in 10.0 mi North 26.5 mph 42.6 mph N/A   Clear
2:55 AM 46.4 °F 37.7 °F 32.0 °F 57% 30.11 in 10.0 mi NNW 26.5 mph 43.7 mph N/A   Clear
3:15 AM 46.4 °F 36.9 °F 32.0 °F 57% 30.11 in 10.0 mi North 32.2 mph 41.4 mph N/A   Clear
3:35 AM 44.6 °F 34.7 °F 32.0 °F 61% 30.14 in 10.0 mi North 29.9 mph 36.8 mph N/A   Clear
3:55 AM 44.6 °F 35.1 °F 32.0 °F 61% 30.15 in 10.0 mi North 27.6 mph 35.7 mph N/A   Clear
4:15 AM 44.6 °F 35.1 °F 32.0 °F 61% 30.15 in 10.0 mi North 27.6 mph 33.4 mph N/A   Clear
4:35 AM 44.6 °F 36.1 °F 32.0 °F 61% 30.17 in 10.0 mi North 21.9 mph 44.9 mph N/A   Clear
4:55 AM 44.6 °F 35.5 °F 30.2 °F 57% 30.17 in 10.0 mi North 25.3 mph 42.6 mph N/A   Clear
5:15 AM 44.6 °F 36.6 °F 30.2 °F 57% 30.19 in 10.0 mi North 19.6 mph 31.1 mph N/A   Clear
5:35 AM 42.8 °F 32.7 °F 26.6 °F 53% 30.21 in 10.0 mi North 27.6 mph 35.7 mph N/A   Clear
5:55 AM 42.8 °F 34.8 °F 24.8 °F 49% 30.23 in 10.0 mi North 17.3 mph 28.8 mph N/A   Clear
6:15 AM 42.8 °F 35.1 °F 24.8 °F 49% 30.24 in 10.0 mi North 16.1 mph 28.8 mph N/A   Clear
6:35 AM 42.8 °F 34.3 °F 24.8 °F 49% 30.25 in 10.0 mi North 19.6 mph 29.9 mph N/A   Clear
6:55 AM 42.8 °F 34.5 °F 24.8 °F 49% 30.26 in 10.0 mi North 18.4 mph 25.3 mph N/A   Clear
7:15 AM 42.8 °F 35.1 °F 23.0 °F 46% 30.28 in 10.0 mi North 16.1 mph 21.9 mph N/A   Clear
7:35 AM 42.8 °F 35.1 °F 23.0 °F 46% 30.29 in 10.0 mi North 16.1 mph 28.8 mph N/A   Clear
7:55 AM 42.8 °F 35.1 °F 21.2 °F 42% 30.29 in 10.0 mi North 16.1 mph 28.8 mph N/A   Clear
8:15 AM 44.6 °F 35.9 °F 17.6 °F 34% 30.31 in 10.0 mi North 23.0 mph 34.5 mph N/A   Clear
8:35 AM 44.6 °F 37.2 °F 14.0 °F 29% 30.33 in 10.0 mi North 17.3 mph 31.1 mph N/A   Clear
8:55 AM 46.4 °F 38.1 °F 14.0 °F 27% 30.34 in 10.0 mi North 24.2 mph 29.9 mph N/A   Clear
9:15 AM 46.4 °F 38.3 °F 12.2 °F 25% 30.35 in 10.0 mi North 23.0 mph 31.1 mph N/A   Clear
9:35 AM 46.4 °F 38.7 °F 10.4 °F 23% 30.36 in 10.0 mi North 20.7 mph 28.8 mph N/A   Clear
9:55 AM 48.2 °F - 10.4 °F 22% 30.36 in 10.0 mi North 23.0 mph 33.4 mph N/A   Clear
10:15 AM 50.0 °F - 12.2 °F 22% 30.36 in 10.0 mi North 24.2 mph 33.4 mph N/A   Clear
10:35 AM 50.0 °F - 10.4 °F 20% 30.37 in 10.0 mi North 23.0 mph 35.7 mph N/A   Clear
10:55 AM 51.8 °F - 10.4 °F 19% 30.38 in 10.0 mi NNW 27.6 mph 33.4 mph N/A   Clear
11:15 AM 51.8 °F - 10.4 °F 19% 30.38 in 10.0 mi NNW 25.3 mph 31.1 mph N/A   Clear
11:35 AM 51.8 °F - 5.0 °F 15% 30.38 in 10.0 mi North 23.0 mph 33.4 mph N/A   Clear
11:55 AM 51.8 °F - 3.2 °F 14% 30.38 in 10.0 mi NNW 20.7 mph 31.1 mph N/A   Clear
12:15 PM 51.8 °F - 1.4 °F 13% 30.38 in 10.0 mi North 25.3 mph 34.5 mph N/A   Clear
12:35 PM 53.6 °F - 5.0 °F 14% 30.38 in 10.0 mi NNW 18.4 mph 28.8 mph N/A   Clear
12:55 PM 53.6 °F - 3.2 °F 13% 30.37 in 10.0 mi North 19.6 mph 31.1 mph N/A   Clear
1:15 PM 53.6 °F - 8.6 °F 16% 30.37 in 10.0 mi North 18.4 mph 31.1 mph N/A   Clear
1:35 PM 55.4 °F - 8.6 °F 15% 30.36 in 10.0 mi NNW 16.1 mph 27.6 mph N/A   Clear
1:55 PM 55.4 °F - 8.6 °F 15% 30.35 in 10.0 mi NNW 18.4 mph 28.8 mph N/A   Clear
2:15 PM 55.4 °F - 10.4 °F 17% 30.35 in 10.0 mi North 16.1 mph 26.5 mph N/A   Clear
2:35 PM 55.4 °F - 12.2 °F 18% 30.34 in 10.0 mi North 16.1 mph 26.5 mph N/A   Clear
2:55 PM 57.2 °F - 10.4 °F 16% 30.34 in 10.0 mi North 15.0 mph 21.9 mph N/A   Clear
3:15 PM 57.2 °F - 10.4 °F 16% 30.34 in 10.0 mi NNW 16.1 mph 21.9 mph N/A   Clear
3:35 PM 55.4 °F - 8.6 °F 15% 30.34 in 10.0 mi North 15.0 mph 24.2 mph N/A   Clear
3:55 PM 55.4 °F - 10.4 °F 17% 30.33 in 10.0 mi North 12.7 mph 24.2 mph N/A   Clear
4:15 PM 55.4 °F - 8.6 °F 15% 30.33 in 10.0 mi North 16.1 mph 25.3 mph N/A   Clear
4:35 PM 55.4 °F - 8.6 °F 15% 30.33 in 10.0 mi North 17.3 mph 24.2 mph N/A   Clear
4:55 PM 55.4 °F - 8.6 °F 15% 30.33 in 10.0 mi NNW 19.6 mph 23.0 mph N/A   Clear
5:15 PM 55.4 °F - 10.4 °F 17% 30.34 in 10.0 mi NNW 13.8 mph 17.3 mph N/A   Clear
5:35 PM 53.6 °F - 10.4 °F 18% 30.34 in 10.0 mi NNW 13.8 mph 19.6 mph N/A   Clear
5:55 PM 53.6 °F - 10.4 °F 18% 30.35 in 10.0 mi NNW 13.8 mph 17.3 mph N/A   Clear
6:15 PM 51.8 °F - 12.2 °F 21% 30.35 in 10.0 mi North 12.7 mph - N/A   Clear
6:35 PM 50.0 °F - 12.2 °F 22% 30.36 in 10.0 mi North 5.8 mph - N/A   Clear
6:55 PM 48.2 °F - 12.2 °F 24% 30.36 in 10.0 mi North 4.6 mph - N/A   Clear
7:15 PM 46.4 °F - 14.0 °F 27% 30.36 in 10.0 mi Calm Calm - N/A   Clear
7:35 PM 46.4 °F 45.2 °F 12.2 °F 25% 30.36 in 10.0 mi North 3.5 mph - N/A   Clear
7:55 PM 44.6 °F 42.2 °F 14.0 °F 29% 30.37 in 10.0 mi North 4.6 mph - N/A   Clear
8:15 PM 44.6 °F 42.2 °F 14.0 °F 29% 30.37 in 10.0 mi NNW 4.6 mph - N/A   Clear
8:35 PM 44.6 °F 42.2 °F 14.0 °F 29% 30.38 in 10.0 mi WNW 4.6 mph - N/A   Clear
8:55 PM 42.8 °F 41.1 °F 14.0 °F 31% 30.38 in 10.0 mi NW 3.5 mph - N/A   Clear
9:15 PM 42.8 °F - 14.0 °F 31% 30.38 in 10.0 mi Calm Calm - N/A   Clear
9:35 PM 37.4 °F - 15.8 °F 41% 30.39 in 10.0 mi Calm Calm - N/A   Clear
9:55 PM 41.0 °F 38.0 °F 14.0 °F 33% 30.39 in 10.0 mi NW 4.6 mph - N/A   Clear
10:15 PM 37.4 °F 34.9 °F 15.8 °F 41% 30.40 in 10.0 mi NW 3.5 mph - N/A   Clear
10:35 PM 37.4 °F 34.9 °F 17.6 °F 45% 30.41 in 10.0 mi NW 3.5 mph - N/A   Clear
10:55 PM 37.4 °F 34.9 °F 15.8 °F 41% 30.41 in 10.0 mi NW 3.5 mph - N/A   Clear
11:15 PM 35.6 °F 30.7 °F 17.6 °F 48% 30.41 in 10.0 mi NW 5.8 mph - N/A   Clear
11:35 PM 35.6 °F 31.7 °F 17.6 °F 48% 30.41 in 10.0 mi NW 4.6 mph - N/A   Clear
11:55 PM 35.6 °F 30.7 °F 17.6 °F 48% 30.41 in 10.0 mi NW 5.8 mph - N/A   Clear